Aviation Digital Data Service (ADDS)

Output produced by METARs form (0429 UTC 26 May 2018)
found at http://www.aviationweather.gov/adds/metars/
 
WBGB 260400Z VRB03KT 9999 SCT016 BKN150 31/26 Q1008
TAF WBGB 252300Z 2600/2700 VRB04KT 9999 FEW015CB
       
WMKB 260400Z 32009KT 260V360 8000 FEW017CB SCT020 BKN270 30/25 Q1010 NOSIG
TAF WMKB 252300Z 2600/2700 06005KT 9000 FEW020 
     BECMG 2603/2605 28007KT 9000 FEW020 
     TEMPO 2610/2615 6000 -TSRA FEW017CB 
     BECMG 2612/2614 VRB03KT FEW025
       
WMKE 260400Z 00000KT 9999 SCT018 BKN260 28/26 Q1010 RERA
TAF AMD WMKE 260120Z 2601/2700 VRB03KT 9999 FEW020 
     TEMPO 2601/2603 4000 TSRA FEW010 FEW016CB SCT020 
     TEMPO 2606/2610 35005KT 5000 TSRA FEW016CB SCT018
       
TAF WMAP 252300Z 2600/2700 VRB03KT 9999 FEW020 
     TEMPO 2609/2613 VRB10G20KT 5000 TSRA FEW017CB SCT020
       
WBKK 260400Z 31003KT 250V360 9999 FEW015 BKN280 33/28 Q1007 NOSIG
TAF WBKK 252300Z 2600/2700 VRB03KT 9999 FEW014 
     TEMPO 2606/2610 33013KT 4000 TSRA FEW012 FEW016CB SCT030
       
WMKK 260400Z 22004KT 160V270 9999 FEW017CB SCT018 BKN280 31/26 Q1009 NOSIG
TAF WMKK 252300Z 2600/2706 VRB03KT 5000 HZ FEW017CB SCT020 
     BECMG 2600/2601 9999 
     TEMPO 2608/2612 02005KT 5000 TSRA FEW010 FEW016CB SCT018
       
WMKD 260400Z 03004KT 330V090 9999 FEW017CB SCT160 BKN280 29/26 Q1010 NOSIG
WBGG 260400Z 19006KT 140V240 9999 FEW010 BKN150 28/25 Q1008 NOSIG
TAF WBGG 252300Z 2600/2700 12005KT 9999 SCT020 
     TEMPO 2600/2603 5000 RA SCT020 
     TEMPO 2608/2611 4000 TSRA FEW015CB
       
WBKL 260400Z VRB03KT 9999 FEW014 BKN300 31/25 Q1008
TAF WBKL 252300Z 2600/2700 10005KT 9999 FEW013 
     TEMPO 2611/2615 4000 TSRA SCT010 FEW013CB SCT030
       
WMKL 260400Z 36004KT 300V040 2000 +TSRA FEW006 FEW017CB SCT024 OVC250 26/26 Q1011
TAF WMKL 252300Z 2600/2700 VRB02KT 9999 FEW020 
     TEMPO 2608/2612 07005KT 5000 TSRA FEW016CB SCT018
       
WMKM 260400Z 18004KT 110V240 9999 FEW020 SCT140 BKN270 31/26 Q1010
TAF WMKM 252300Z 2600/2700 VRB03KT 9999 FEW020 
     TEMPO 2600/2604 03005KT 5000 TSRA FEW017CB SCT025 
     TEMPO 2612/2616 21005KT 5000 TSRA FEW017CB SCT025
       
WBGR 260400Z 25006KT 230V300 9999 SCT016 BKN300 30/26 Q1008
TAF WBGR 252300Z 2600/2700 VRB03KT 9999 SCT014 
     TEMPO 2606/2610 4000 TSRA SCT014 FEW015CB
       
WBGB 260400Z VRB03KT 9999 SCT016 BKN150 31/26 Q1008
TAF WBGB 252300Z 2600/2700 VRB04KT 9999 FEW015CB
       
WBGG 260400Z 19006KT 140V240 9999 FEW010 BKN150 28/25 Q1008 NOSIG
TAF WBGG 252300Z 2600/2700 12005KT 9999 SCT020 
     TEMPO 2600/2603 5000 RA SCT020 
     TEMPO 2608/2611 4000 TSRA FEW015CB
       
WBGR 260400Z 25006KT 230V300 9999 SCT016 BKN300 30/26 Q1008
TAF WBGR 252300Z 2600/2700 VRB03KT 9999 SCT014 
     TEMPO 2606/2610 4000 TSRA SCT014 FEW015CB
       
WBGS 260400Z 00000KT 9999 SCT016 BKN150 27/24 Q1009
TAF WBGS 252300Z 2600/2700 VRB03KT 9999 SCT018 
     TEMPO 2600/2603 5000 RA SCT018 
     TEMPO 2607/2611 4000 TSRA FEW015CB
       
WBGY 260400Z 11004KT 060V160 9999 FEW022 BKN150 26/25 Q1009
WBKK 260400Z 31003KT 250V360 9999 FEW015 BKN280 33/28 Q1007 NOSIG
TAF WBKK 252300Z 2600/2700 VRB03KT 9999 FEW014 
     TEMPO 2606/2610 33013KT 4000 TSRA FEW012 FEW016CB SCT030
       
WBKL 260400Z VRB03KT 9999 FEW014 BKN300 31/25 Q1008
TAF WBKL 252300Z 2600/2700 10005KT 9999 FEW013 
     TEMPO 2611/2615 4000 TSRA SCT010 FEW013CB SCT030
       
WBKS 260400Z 07007KT 030V140 9999 FEW017 BKN300 33/26 Q1008
TAF WBKS 252300Z 2600/2700 07010KT 9999 FEW016 
     TEMPO 2606/2610 12012KT 4000 TSRA SCT010 FEW015CB SCT030
       
WBKT 260400Z VRB03KT 9999 FEW016 BKN290 32/25 Q1008
WBKW 260400Z 15006KT 110V200 9999 FEW017 BKN300 32/26 Q1009
TAF WBKW 252300Z 2600/2700 12006KT 9999 FEW017 
     TEMPO 2608/2612 4000 TSRA FEW010 FEW016CB SCT030
       
WBSB 260400Z 22005KT 9999 SCT016 BKN300 33/26 Q1008 NOSIG
TAF WBSB 252300Z 2600/2706 22006KT 9999 FEW015 FEW016CB 
     BECMG 2603/2605 34010KT SCT016 FEW017CB 
     TEMPO 2610/2614 3000 +TSRA SCT014 SCT015CB
       
WMKP 260400Z 05008KT 330V090 9000 FEW017CB SCT140 BKN270 32/26 Q1010 NOSIG
TAF WMKP 252300Z 2600/2700 VRB03KT 9000 FEW020 SCT140 BKN270 
     TEMPO 2600/2602 6000 -RA FEW012 FEW017CB 
     TEMPO 2604/2612 23010KT 
     TEMPO 2612/2616 5000 TSRA FEW010 FEW017CB SCT023 BKN260
       
TAF WMBT 252300Z 2600/2700 05005KT 9999 FEW020 
     TEMPO 2601/2605 11005KT 5000 TSRA FEW017 SCT020
       
WBKS 260400Z 07007KT 030V140 9999 FEW017 BKN300 33/26 Q1008
TAF WBKS 252300Z 2600/2700 07010KT 9999 FEW016 
     TEMPO 2606/2610 12012KT 4000 TSRA SCT010 FEW015CB SCT030
       
WBGS 260400Z 00000KT 9999 SCT016 BKN150 27/24 Q1009
TAF WBGS 252300Z 2600/2700 VRB03KT 9999 SCT018 
     TEMPO 2600/2603 5000 RA SCT018 
     TEMPO 2607/2611 4000 TSRA FEW015CB
       
WMSA 260400Z 19006KT 160V240 7000 FEW017CB SCT019 BKN280 30/25 Q1010
TAF WMSA 252300Z 2600/2700 VRB03KT 3000 HZ FEW017CB SCT020 
     BECMG 2601/2603 9999 
     TEMPO 2608/2612 18009KT 5000 TSRA FEW016CB SCT018
       
WMKA 260400Z 30004KT 250V010 9999 FEW017CB SCT140 BKN280 31/27 Q1010
TAF WMKA 252300Z 2600/2700 VRB02KT 8000 FEW017CB SCT025 
     BECMG 2600/2602 9999 
     BECMG 2603/2605 08005KT
       
WMKI 260400Z 02001KT 9999 SCT020 BKN290 31/25 Q1010
TAF WMKI 252300Z 2600/2700 02005KT 9999 FEW020 SCT140 
     TEMPO 2608/2612 VRB02KT 3000 TSRA FEW005 FEW016CB SCT020
       
WMKJ 260400Z 04005KT 330V100 9999 FEW017CB SCT018 BKN280 31/28 Q1009
TAF WMKJ 252300Z 2600/2700 VRB03KT 9999 FEW020 
     TEMPO 2604/2608 08008KT 5000 TSRA FEW015CB SCT018
       
WMKC 260400Z 07009KT 6000 -RA FEW017CB SCT020 BKN220 27/26 Q1010
TAF WMKC 252300Z 2600/2700 VRB03KT 9999 FEW020 
     BECMG 2600/2601 10005KT 
     TEMPO 2607/2611 5000 TSRA FEW017CB SCT020
       
WMKN 260400Z 05003KT 350V160 9999 -RA SCT020 BKN150 27/25 Q1010
TAF AMD WMKN 260120Z 2601/2700 VRB03KT 9999 FEW018 
     TEMPO 2602/2606 5000 RA FEW012 FEW017CB SCT020 
     TEMPO 2608/2612 06005KT 5000 TSRA FEW017CB SCT018
       
WBKW 260400Z 15006KT 110V200 9999 FEW017 BKN300 32/26 Q1009
TAF WBKW 252300Z 2600/2700 12006KT 9999 FEW017 
     TEMPO 2608/2612 4000 TSRA FEW010 FEW016CB SCT030